Time;durP1;ratioP1;P1;durP2;ratioP2;P2;SDS_P1;SDS_P2;PMS_P1;PMS_P2;Temp;Humidity;BMP_temperature;BMP_pressure;BME280_temperature;BME280_humidity;BME280_pressure;Samples;Min_cycle;Max_cycle;Signal;HPM_P1;HPM_P2
2020/12/19 00:00:43;;;;;;;5.75;4.07;;;8.70;81.90;;;;;;4993525;28;20027;-72
2020/12/19 00:03:09;;;;;;;6.03;3.92;;;8.70;81.90;;;;;;4992054;28;20026;-73
2020/12/19 00:05:34;;;;;;;5.32;3.88;;;8.70;81.90;;;;;;4988339;28;20038;-73
2020/12/19 00:08:00;;;;;;;5.70;3.90;;;8.70;81.90;;;;;;4957027;28;20069;-73
2020/12/19 00:10:26;;;;;;;5.68;4.00;;;8.70;81.90;;;;;;4974973;28;20038;-73
2020/12/19 00:12:57;;;;;;;5.13;3.70;;;8.70;81.90;;;;;;4991215;28;20072;-73
2020/12/19 00:15:23;;;;;;;5.22;3.50;;;8.70;82.00;;;;;;4995919;28;20030;-73
2020/12/19 00:17:48;;;;;;;6.53;4.65;;;8.70;82.00;;;;;;4991097;28;20475;-73
2020/12/19 00:20:14;;;;;;;5.70;4.05;;;8.70;82.00;;;;;;5007149;28;20089;-72
2020/12/19 00:22:43;;;;;;;5.68;3.95;;;8.70;82.00;;;;;;4990763;28;20093;-73
2020/12/19 00:25:09;;;;;;;5.47;4.10;;;8.70;82.00;;;;;;5006435;28;20038;-72
2020/12/19 00:27:35;;;;;;;5.40;3.85;;;8.70;82.00;;;;;;4992102;28;20069;-73
2020/12/19 00:30:00;;;;;;;6.10;4.68;;;8.60;81.90;;;;;;4989971;28;20038;-73
2020/12/19 00:32:26;;;;;;;5.68;4.07;;;8.60;81.90;;;;;;4971263;28;20053;-72
2020/12/19 00:34:52;;;;;;;6.18;4.40;;;8.60;81.90;;;;;;4990620;28;20031;-73
2020/12/19 00:37:18;;;;;;;6.47;4.53;;;8.60;82.00;;;;;;4989827;28;20041;-73
2020/12/19 00:39:44;;;;;;;6.60;4.63;;;8.60;82.00;;;;;;4991648;28;20073;-72
2020/12/19 00:42:10;;;;;;;6.20;4.13;;;8.60;82.00;;;;;;4972952;28;20018;-73
2020/12/19 00:44:36;;;;;;;6.00;4.15;;;8.60;82.00;;;;;;4973904;28;20483;-73
2020/12/19 00:47:02;;;;;;;6.38;4.82;;;8.60;82.00;;;;;;4956851;28;20039;-73
2020/12/19 00:49:27;;;;;;;6.43;4.82;;;8.60;82.00;;;;;;4972252;28;20121;-72
2020/12/19 00:51:53;;;;;;;6.15;4.10;;;8.60;82.00;;;;;;4990343;28;20505;-73
2020/12/19 00:54:19;;;;;;;5.78;3.97;;;8.60;82.00;;;;;;4990409;28;20502;-73
2020/12/19 00:56:44;;;;;;;6.65;4.88;;;8.60;82.00;;;;;;4974856;28;20088;-73
2020/12/19 00:59:10;;;;;;;6.28;4.10;;;8.60;82.00;;;;;;4988558;28;20084;-73
2020/12/19 01:01:36;;;;;;;6.25;4.82;;;8.50;82.00;;;;;;4991049;28;20481;-73
2020/12/19 01:04:01;;;;;;;6.07;3.97;;;8.60;82.00;;;;;;4988666;28;20118;-73
2020/12/19 01:06:28;;;;;;;5.93;4.43;;;8.50;82.00;;;;;;4971057;28;20445;-72
2020/12/19 01:08:56;;;;;;;6.93;5.00;;;8.50;82.00;;;;;;4989525;28;20054;-73
2020/12/19 01:11:24;;;;;;;6.20;4.43;;;8.50;82.00;;;;;;4989700;28;20029;-72
2020/12/19 01:13:50;;;;;;;6.00;4.38;;;8.50;82.00;;;;;;4989153;28;20034;-74
2020/12/19 01:16:18;;;;;;;6.93;5.05;;;8.50;82.00;;;;;;4990709;28;20525;-72
2020/12/19 01:18:46;;;;;;;6.28;4.55;;;8.50;82.00;;;;;;4990897;28;20107;-73
2020/12/19 01:21:13;;;;;;;6.28;4.50;;;8.50;82.00;;;;;;4990864;28;20030;-72
2020/12/19 01:23:39;;;;;;;6.93;5.25;;;8.50;82.00;;;;;;4993658;28;20042;-72
2020/12/19 01:26:05;;;;;;;8.25;4.78;;;8.50;82.00;;;;;;4992791;28;20038;-72
2020/12/19 01:28:31;;;;;;;7.13;5.25;;;8.50;82.10;;;;;;4997383;28;20026;-73
2020/12/19 01:31:00;;;;;;;6.57;4.95;;;8.40;82.00;;;;;;4956430;28;20038;-73
2020/12/19 01:33:26;;;;;;;6.47;5.10;;;8.40;82.00;;;;;;4991897;28;20391;-73
2020/12/19 01:35:51;;;;;;;7.32;5.53;;;8.50;82.00;;;;;;4992285;28;20042;-73
2020/12/19 01:38:17;;;;;;;7.20;5.40;;;8.40;82.00;;;;;;4995657;28;20117;-74
2020/12/19 01:40:50;;;;;;;7.70;5.45;;;8.40;82.00;;;;;;4993668;28;20026;-74
2020/12/19 01:43:16;;;;;;;7.38;5.10;;;8.40;82.00;;;;;;4993088;28;20530;-74
2020/12/19 01:45:42;;;;;;;7.55;5.03;;;8.40;82.00;;;;;;4994472;28;20089;-74
2020/12/19 01:48:19;;;;;;;7.40;5.07;;;8.40;82.00;;;;;;5008613;28;20035;-73
2020/12/19 01:50:47;;;;;;;7.05;5.65;;;8.40;82.10;;;;;;5010296;28;20030;-72
2020/12/19 01:53:14;;;;;;;7.38;5.40;;;8.40;82.10;;;;;;4990197;28;20061;-73
2020/12/19 01:55:40;;;;;;;7.88;5.63;;;8.40;82.00;;;;;;4989728;28;20034;-72
2020/12/19 01:58:07;;;;;;;8.13;5.63;;;8.40;82.70;;;;;;4991622;28;20031;-75
2020/12/19 02:00:36;;;;;;;7.00;5.38;;;8.40;82.10;;;;;;4993947;28;20041;-73
2020/12/19 02:03:01;;;;;;;7.40;5.10;;;8.40;82.10;;;;;;4977820;28;20518;-73
2020/12/19 02:05:28;;;;;;;6.55;4.85;;;8.40;82.00;;;;;;4975796;28;20034;-73
2020/12/19 02:07:53;;;;;;;7.18;5.30;;;8.40;82.10;;;;;;4993393;28;20034;-73
2020/12/19 02:10:19;;;;;;;8.43;5.68;;;8.30;82.00;;;;;;4992693;28;20105;-73
2020/12/19 02:12:45;;;;;;;7.22;5.35;;;8.40;82.10;;;;;;4992401;28;20437;-73
2020/12/19 02:15:10;;;;;;;6.95;5.18;;;8.40;82.10;;;;;;4991486;28;20134;-73
2020/12/19 02:17:36;;;;;;;8.38;5.40;;;8.30;82.10;;;;;;4959004;28;20422;-73
2020/12/19 02:20:02;;;;;;;7.80;5.55;;;8.30;82.10;;;;;;5009879;28;20447;-72
2020/12/19 02:22:28;;;;;;;7.32;4.95;;;8.30;82.10;;;;;;4990690;28;20034;-72
2020/12/19 02:24:54;;;;;;;7.93;5.15;;;8.30;82.10;;;;;;5006608;28;20037;-76
2020/12/19 02:27:20;;;;;;;7.63;5.30;;;8.30;82.70;;;;;;4993077;28;20433;-72
2020/12/19 02:29:45;;;;;;;7.35;5.53;;;8.30;82.10;;;;;;4993829;28;20522;-73
2020/12/19 02:32:11;;;;;;;7.05;5.05;;;8.30;82.10;;;;;;4992379;28;20073;-72
2020/12/19 02:34:37;;;;;;;7.60;5.30;;;8.30;82.10;;;;;;4990962;28;20081;-72
2020/12/19 02:37:02;;;;;;;7.35;5.43;;;8.30;82.10;;;;;;4992257;28;20483;-73
2020/12/19 02:39:28;;;;;;;6.97;4.90;;;8.30;82.10;;;;;;4992314;28;20049;-73
2020/12/19 02:41:54;;;;;;;8.48;5.68;;;8.30;82.10;;;;;;5008942;28;20034;-72
2020/12/19 02:44:21;;;;;;;7.05;5.22;;;8.30;82.10;;;;;;4958312;28;20058;-75
2020/12/19 02:46:47;;;;;;;7.53;5.45;;;8.30;82.10;;;;;;4991706;28;20084;-73
2020/12/19 02:49:13;;;;;;;7.65;5.30;;;8.30;82.10;;;;;;4991059;28;20485;-73
2020/12/19 02:51:39;;;;;;;7.63;5.32;;;8.30;82.10;;;;;;4990453;28;20368;-72
2020/12/19 02:54:05;;;;;;;7.90;5.57;;;8.20;82.10;;;;;;4992969;28;20026;-73
2020/12/19 02:56:31;;;;;;;7.78;5.53;;;8.30;82.10;;;;;;4991687;28;20085;-72
2020/12/19 02:58:56;;;;;;;8.55;5.53;;;8.20;82.10;;;;;;4992761;28;20031;-72
2020/12/19 03:01:30;;;;;;;6.97;5.13;;;8.20;82.10;;;;;;4991256;28;20061;-73
2020/12/19 03:03:56;;;;;;;7.03;5.03;;;8.30;82.20;;;;;;5004342;28;20033;-73
2020/12/19 03:06:22;;;;;;;7.57;5.28;;;8.30;82.10;;;;;;4991097;28;20062;-73
2020/12/19 03:08:48;;;;;;;7.20;5.35;;;8.20;82.00;;;;;;5008091;28;20039;-73
2020/12/19 03:11:14;;;;;;;7.32;5.00;;;8.20;82.00;;;;;;4975464;28;20041;-73
2020/12/19 03:13:40;;;;;;;9.40;5.90;;;8.20;82.10;;;;;;4992039;28;20113;-73
2020/12/19 03:16:06;;;;;;;7.63;5.28;;;8.20;82.10;;;;;;5006367;28;20030;-73
2020/12/19 03:18:32;;;;;;;7.70;5.57;;;8.20;82.10;;;;;;5007462;28;20489;-73
2020/12/19 03:20:57;;;;;;;7.72;5.57;;;8.20;82.10;;;;;;5006036;28;20504;-73
2020/12/19 03:23:23;;;;;;;8.25;5.82;;;8.20;82.10;;;;;;4991466;28;20037;-73
2020/12/19 03:25:50;;;;;;;6.85;4.93;;;8.20;82.10;;;;;;4992420;28;20372;-73
2020/12/19 03:28:17;;;;;;;7.20;5.38;;;8.20;82.10;;;;;;4988716;28;20097;-73
2020/12/19 03:30:42;;;;;;;8.25;5.38;;;8.20;82.10;;;;;;4983686;28;20360;-74
2020/12/19 03:33:08;;;;;;;8.32;6.03;;;8.20;82.10;;;;;;5006221;28;20104;-73
2020/12/19 03:35:36;;;;;;;8.23;5.93;;;8.10;82.10;;;;;;4992886;28;20082;-73
2020/12/19 03:38:02;;;;;;;8.40;5.50;;;8.10;82.10;;;;;;4990988;28;20042;-74
2020/12/19 03:40:28;;;;;;;7.28;5.32;;;8.20;82.10;;;;;;4959375;28;20498;-73
2020/12/19 03:42:53;;;;;;;6.93;5.25;;;8.20;82.10;;;;;;4974274;28;20051;-73
2020/12/19 03:45:19;;;;;;;7.75;5.20;;;8.10;82.10;;;;;;5005813;28;20034;-73
2020/12/19 03:47:45;;;;;;;8.05;5.28;;;8.10;82.10;;;;;;4990462;28;20057;-73
2020/12/19 03:50:11;;;;;;;7.50;5.53;;;8.10;82.10;;;;;;4989898;28;20125;-73
2020/12/19 03:52:37;;;;;;;7.47;5.80;;;8.10;82.10;;;;;;4972584;28;20505;-73
2020/12/19 03:55:04;;;;;;;8.55;5.60;;;8.10;82.10;;;;;;4991837;28;20436;-73
2020/12/19 03:57:30;;;;;;;7.63;5.40;;;8.10;82.10;;;;;;4989235;28;20037;-72
2020/12/19 03:59:56;;;;;;;7.72;5.25;;;8.10;82.10;;;;;;4990596;28;20031;-73
2020/12/19 04:02:21;;;;;;;7.65;5.60;;;8.10;82.10;;;;;;4991298;28;20033;-73
2020/12/19 04:04:47;;;;;;;8.23;5.80;;;8.00;82.10;;;;;;4974731;28;20046;-73
2020/12/19 04:07:13;;;;;;;7.85;5.22;;;8.00;82.10;;;;;;4991320;28;20049;-73
2020/12/19 04:09:39;;;;;;;7.68;5.63;;;8.00;82.10;;;;;;4973206;28;20066;-73
2020/12/19 04:12:05;;;;;;;8.77;5.82;;;8.00;82.10;;;;;;4991676;28;20482;-72
2020/12/19 04:14:38;;;;;;;8.70;5.75;;;8.00;82.10;;;;;;4989123;28;20624;-73
2020/12/19 04:17:05;;;;;;;6.97;5.10;;;8.00;82.10;;;;;;4989867;28;20478;-72
2020/12/19 04:19:31;;;;;;;7.85;5.78;;;8.00;82.10;;;;;;4989289;28;20031;-72
2020/12/19 04:21:57;;;;;;;7.20;4.70;;;8.00;82.10;;;;;;4991336;28;20042;-73
2020/12/19 04:24:23;;;;;;;7.35;5.60;;;8.00;82.10;;;;;;4988690;28;20109;-73
2020/12/19 04:26:49;;;;;;;8.00;5.80;;;8.00;82.20;;;;;;4983384;28;20380;-75
2020/12/19 04:29:14;;;;;;;7.82;5.32;;;8.00;82.20;;;;;;4989041;28;20643;-72
2020/12/19 04:31:40;;;;;;;7.38;5.40;;;8.00;82.20;;;;;;4990688;28;20083;-72
2020/12/19 04:34:06;;;;;;;9.20;5.90;;;8.00;82.20;;;;;;4989622;28;20034;-73
2020/12/19 04:36:31;;;;;;;8.45;6.15;;;8.00;82.20;;;;;;4973555;28;20053;-72
2020/12/19 04:38:57;;;;;;;7.20;5.20;;;8.00;82.20;;;;;;4992190;28;20030;-73
2020/12/19 04:41:23;;;;;;;8.27;5.43;;;7.90;82.10;;;;;;4957989;28;20088;-72
2020/12/19 04:43:49;;;;;;;7.28;5.15;;;8.00;82.10;;;;;;4990849;28;20030;-72
2020/12/19 04:46:16;;;;;;;8.57;6.03;;;8.00;82.20;;;;;;4989702;28;20049;-73
2020/12/19 04:48:44;;;;;;;8.65;5.75;;;8.00;82.20;;;;;;4990834;28;20045;-73
2020/12/19 04:51:11;;;;;;;7.07;5.30;;;7.90;82.20;;;;;;4989986;28;20029;-72
2020/12/19 04:53:37;;;;;;;8.00;5.80;;;7.90;82.20;;;;;;4991797;28;20030;-73
2020/12/19 04:56:05;;;;;;;7.63;5.20;;;7.90;82.10;;;;;;4991229;28;20049;-73
2020/12/19 04:58:31;;;;;;;8.60;6.25;;;7.90;82.20;;;;;;4976144;28;20112;-73
2020/12/19 05:00:56;;;;;;;7.75;5.57;;;7.90;82.20;;;;;;5010015;28;20077;-73
2020/12/19 05:03:22;;;;;;;8.30;5.47;;;7.90;82.20;;;;;;4976962;28;20034;-74
2020/12/19 05:05:48;;;;;;;7.63;5.20;;;7.90;82.20;;;;;;5008373;28;20039;-75
2020/12/19 05:08:13;;;;;;;8.15;5.82;;;7.90;82.20;;;;;;4993959;28;20042;-72
2020/12/19 05:10:39;;;;;;;7.70;5.43;;;7.90;82.20;;;;;;4994704;28;20042;-72
2020/12/19 05:13:05;;;;;;;7.00;5.20;;;7.90;82.20;;;;;;4976975;28;20130;-73
2020/12/19 05:15:31;;;;;;;7.38;5.05;;;7.90;82.20;;;;;;4993359;28;20109;-73
2020/12/19 05:17:59;;;;;;;7.93;5.90;;;7.90;82.20;;;;;;4976361;28;20054;-73
2020/12/19 05:20:29;;;;;;;7.28;5.13;;;7.90;82.20;;;;;;5007442;28;20034;-73
2020/12/19 05:22:56;;;;;;;7.55;5.40;;;7.90;82.20;;;;;;4985666;28;20018;-73
2020/12/19 05:25:24;;;;;;;8.32;5.85;;;7.90;82.20;;;;;;4977256;28;20467;-74
2020/12/19 05:27:51;;;;;;;8.00;5.70;;;7.90;82.20;;;;;;5009757;28;20026;-73
2020/12/19 05:30:19;;;;;;;8.27;5.63;;;7.90;82.20;;;;;;4982804;28;20030;-73
2020/12/19 05:32:47;;;;;;;8.75;5.25;;;7.80;82.20;;;;;;4992590;28;20046;-75
2020/12/19 05:35:18;;;;;;;7.32;4.90;;;7.80;82.20;;;;;;4993109;28;20038;-73
2020/12/19 05:37:54;;;;;;;6.35;4.90;;;7.80;82.20;;;;;;4994182;28;20053;-72
2020/12/19 05:40:24;;;;;;;8.63;5.85;;;7.80;82.10;;;;;;5010067;28;20109;-72
2020/12/19 05:42:49;;;;;;;8.02;5.50;;;7.80;82.10;;;;;;4991263;28;20026;-73
2020/12/19 05:45:17;;;;;;;7.20;5.05;;;7.80;82.10;;;;;;4993183;28;20368;-73
2020/12/19 05:47:43;;;;;;;7.40;5.10;;;7.80;82.20;;;;;;5006598;28;20038;-73
2020/12/19 05:50:10;;;;;;;8.82;5.75;;;7.80;82.20;;;;;;4992163;28;20035;-72
2020/12/19 05:52:37;;;;;;;7.85;5.63;;;7.80;82.20;;;;;;5008683;28;20034;-72
2020/12/19 05:55:07;;;;;;;8.25;5.72;;;7.80;82.20;;;;;;4994907;28;20081;-72
2020/12/19 05:57:35;;;;;;;7.07;5.10;;;7.80;82.20;;;;;;5008725;28;20398;-73
2020/12/19 06:00:08;;;;;;;7.30;4.93;;;7.80;82.20;;;;;;4993983;28;20033;-72
2020/12/19 06:02:37;;;;;;;7.18;5.18;;;7.80;82.20;;;;;;4991830;28;20061;-72
2020/12/19 06:05:05;;;;;;;6.75;5.00;;;7.80;82.20;;;;;;4993648;28;20093;-73
2020/12/19 06:07:37;;;;;;;8.27;4.90;;;7.80;82.20;;;;;;4993783;28;20510;-72
2020/12/19 06:10:05;;;;;;;8.23;5.50;;;7.80;82.20;;;;;;4992507;28;20483;-73
2020/12/19 06:13:05;;;;;;;7.10;5.07;;;7.80;82.20;;;;;;5008746;28;20034;-72
2020/12/19 06:15:57;;;;;;;7.93;5.35;;;7.70;82.20;;;;;;4991966;28;20343;-72
2020/12/19 06:18:47;;;;;;;7.55;5.35;;;7.80;82.20;;;;;;4991425;28;20022;-72
2020/12/19 06:21:14;;;;;;;6.38;4.53;;;7.70;82.10;;;;;;5008348;28;20483;-72
2020/12/19 06:23:41;;;;;;;7.72;5.47;;;7.70;82.10;;;;;;4993744;28;20081;-72
2020/12/19 06:26:08;;;;;;;7.47;4.90;;;7.70;82.10;;;;;;4993721;28;20131;-75
2020/12/19 06:28:39;;;;;;;7.47;5.43;;;7.70;82.20;;;;;;5007735;28;20399;-73
2020/12/19 06:31:06;;;;;;;8.05;5.40;;;7.70;82.30;;;;;;4992738;28;20033;-73
2020/12/19 06:33:36;;;;;;;7.47;5.00;;;7.70;82.20;;;;;;5006512;28;20129;-73
2020/12/19 06:36:20;;;;;;;7.13;5.30;;;7.70;82.20;;;;;;5007518;28;20031;-73
2020/12/19 06:38:56;;;;;;;6.80;4.85;;;7.70;82.20;;;;;;4991989;28;20030;-73
2020/12/19 06:41:46;;;;;;;7.15;4.75;;;7.70;82.20;;;;;;5007497;28;20026;-72
2020/12/19 06:44:13;;;;;;;7.38;4.85;;;7.70;82.20;;;;;;4986180;28;20026;-72
2020/12/19 06:46:39;;;;;;;7.50;5.05;;;7.70;82.10;;;;;;5009070;28;20027;-73
2020/12/19 06:49:26;;;;;;;8.13;5.30;;;7.60;82.10;;;;;;4992211;28;20085;-72
2020/12/19 06:52:11;;;;;;;6.10;4.15;;;7.60;82.30;;;;;;4991294;28;20350;-73
2020/12/19 06:54:41;;;;;;;6.45;4.57;;;7.60;82.20;;;;;;4973445;28;20034;-73
2020/12/19 06:57:27;;;;;;;5.75;4.38;;;7.60;82.10;;;;;;4980099;28;20030;-72
2020/12/19 06:59:55;;;;;;;7.53;5.25;;;7.60;82.20;;;;;;4985568;28;20022;-73
2020/12/19 07:02:22;;;;;;;6.75;4.78;;;7.60;82.10;;;;;;4992143;28;20026;-72
2020/12/19 07:04:50;;;;;;;7.25;5.15;;;7.60;82.20;;;;;;4989445;28;20462;-72
2020/12/19 07:07:21;;;;;;;7.65;5.20;;;7.60;82.20;;;;;;4976709;28;20035;-73
2020/12/19 07:09:58;;;;;;;7.05;5.15;;;7.60;82.20;;;;;;5005892;28;20054;-73
2020/12/19 07:12:35;;;;;;;7.97;5.43;;;7.60;82.30;;;;;;5006938;28;20057;-73
2020/12/19 07:15:03;;;;;;;6.68;4.60;;;7.60;82.20;;;;;;4991177;28;20134;-73
2020/12/19 07:17:42;;;;;;;7.00;5.07;;;7.50;82.10;;;;;;4991125;28;20026;-73
2020/12/19 07:20:07;;;;;;;6.68;5.00;;;7.50;82.10;;;;;;4988393;28;20125;-72
2020/12/19 07:22:33;;;;;;;7.47;5.03;;;7.50;82.10;;;;;;4988996;28;20101;-73
2020/12/19 07:24:59;;;;;;;7.70;5.22;;;7.50;82.20;;;;;;4993536;28;20038;-73
2020/12/19 07:27:24;;;;;;;6.55;4.68;;;7.50;82.10;;;;;;4990674;28;20065;-75
2020/12/19 07:29:58;;;;;;;6.97;4.85;;;7.50;82.20;;;;;;4997918;28;20041;-72
2020/12/19 07:32:24;;;;;;;7.00;5.00;;;7.50;82.20;;;;;;4991684;28;20101;-72
2020/12/19 07:34:54;;;;;;;6.65;4.53;;;7.50;82.10;;;;;;4990042;28;20026;-72
2020/12/19 07:37:21;;;;;;;7.78;4.90;;;7.50;82.20;;;;;;4991435;28;20044;-75
2020/12/19 07:39:47;;;;;;;6.28;4.45;;;7.50;82.20;;;;;;4990679;28;20022;-73
2020/12/19 07:42:13;;;;;;;7.60;5.07;;;7.50;82.10;;;;;;4990921;28;20041;-72
2020/12/19 07:44:41;;;;;;;6.63;4.78;;;7.50;82.70;;;;;;5007496;28;20422;-73
2020/12/19 07:47:06;;;;;;;7.15;4.78;;;7.50;82.10;;;;;;4974193;28;20150;-72
2020/12/19 07:49:33;;;;;;;6.25;4.43;;;7.50;82.10;;;;;;5005114;28;20512;-72
2020/12/19 07:52:20;;;;;;;7.47;5.00;;;7.50;82.20;;;;;;5007238;28;20030;-73
2020/12/19 07:54:57;;;;;;;6.63;4.80;;;7.40;82.10;;;;;;5005829;28;20041;-73
2020/12/19 07:57:24;;;;;;;6.82;4.82;;;7.50;82.20;;;;;;4991969;28;20026;-73
2020/12/19 07:59:53;;;;;;;5.97;4.40;;;7.40;82.10;;;;;;4992724;28;20026;-73
2020/12/19 08:02:19;;;;;;;6.00;4.22;;;7.40;82.10;;;;;;4990799;28;20061;-73
2020/12/19 08:04:49;;;;;;;6.90;4.93;;;7.40;82.10;;;;;;4973263;28;20035;-72
2020/12/19 08:07:16;;;;;;;6.65;4.38;;;7.40;82.10;;;;;;4966964;28;20121;-73
2020/12/19 08:09:41;;;;;;;7.15;4.78;;;7.40;82.10;;;;;;4986131;28;20073;-72
2020/12/19 08:12:10;;;;;;;6.20;4.55;;;7.40;82.10;;;;;;4984403;28;20030;-74
2020/12/19 08:14:37;;;;;;;6.72;4.55;;;7.40;82.20;;;;;;4983469;28;20131;-72
2020/12/19 08:17:09;;;;;;;6.38;4.68;;;7.40;82.10;;;;;;4983069;28;20057;-73
2020/12/19 08:19:38;;;;;;;6.70;4.55;;;7.40;82.10;;;;;;4989698;28;20030;-73
2020/12/19 08:22:06;;;;;;;6.93;4.90;;;7.40;82.10;;;;;;4990423;28;20042;-73
2020/12/19 08:24:32;;;;;;;6.10;4.45;;;7.30;82.10;;;;;;4988836;28;20026;-72
2020/12/19 08:27:35;;;;;;;7.05;4.85;;;7.40;82.10;;;;;;4986231;28;20058;-74
2020/12/19 08:30:07;;;;;;;7.60;5.07;;;7.30;82.10;;;;;;5003902;28;20053;-73
2020/12/19 08:32:34;;;;;;;7.00;4.97;;;7.30;82.10;;;;;;4990959;28;20565;-73
2020/12/19 08:35:00;;;;;;;6.82;4.72;;;7.40;82.10;;;;;;5013144;28;20066;-73
2020/12/19 08:37:26;;;;;;;7.60;5.20;;;7.30;82.10;;;;;;5014100;28;20045;-73
2020/12/19 08:40:16;;;;;;;7.70;4.90;;;7.30;82.10;;;;;;4997158;28;20026;-72
2020/12/19 08:42:43;;;;;;;6.93;4.65;;;7.30;82.20;;;;;;4992521;28;20747;-75
2020/12/19 08:45:31;;;;;;;7.50;4.40;;;7.30;82.20;;;;;;4974750;28;20034;-72
2020/12/19 08:48:18;;;;;;;6.57;4.80;;;7.30;82.20;;;;;;4992595;28;20030;-72
2020/12/19 08:50:45;;;;;;;6.95;4.68;;;7.30;82.10;;;;;;5005759;28;20484;-73
2020/12/19 08:53:22;;;;;;;7.40;5.07;;;7.40;82.20;;;;;;4977066;28;20038;-72
2020/12/19 08:55:49;;;;;;;6.28;4.72;;;7.30;82.20;;;;;;4991119;28;21413;-73
2020/12/19 08:58:25;;;;;;;7.32;5.18;;;7.30;82.10;;;;;;4990186;28;20046;-73
2020/12/19 09:00:53;;;;;;;7.25;4.80;;;7.30;82.20;;;;;;4990302;28;20061;-72
2020/12/19 09:03:25;;;;;;;6.68;4.43;;;7.30;82.20;;;;;;4997473;28;20449;-73
2020/12/19 09:06:04;;;;;;;6.78;5.00;;;7.40;82.20;;;;;;4995431;28;20034;-73
2020/12/19 09:08:40;;;;;;;6.30;4.45;;;7.30;82.20;;;;;;4989643;28;21165;-73
2020/12/19 09:11:07;;;;;;;7.32;4.85;;;7.40;82.20;;;;;;4990712;28;20031;-75
2020/12/19 09:13:34;;;;;;;7.65;4.72;;;7.40;82.20;;;;;;4989485;28;20065;-73
2020/12/19 09:16:08;;;;;;;7.20;5.00;;;7.40;82.20;;;;;;4989701;28;20096;-74
2020/12/19 09:18:36;;;;;;;7.88;4.82;;;7.40;82.30;;;;;;5004941;28;20046;-73
2020/12/19 09:21:06;;;;;;;6.78;4.60;;;7.40;82.30;;;;;;4989448;28;20471;-74
2020/12/19 09:23:32;;;;;;;7.53;4.95;;;7.40;82.30;;;;;;4991381;28;20037;-73
2020/12/19 09:26:01;;;;;;;6.70;4.65;;;7.40;82.90;;;;;;4991682;28;20026;-73
2020/12/19 09:28:28;;;;;;;7.47;4.90;;;7.50;82.30;;;;;;4996808;28;20498;-74
2020/12/19 09:30:55;;;;;;;6.68;4.78;;;7.50;82.30;;;;;;4996424;28;20294;-74
2020/12/19 09:33:21;;;;;;;7.20;4.93;;;7.50;82.30;;;;;;5009368;28;20088;-73
2020/12/19 09:35:47;;;;;;;6.63;4.72;;;7.50;82.30;;;;;;5013133;28;20483;-75
2020/12/19 09:38:14;;;;;;;6.90;4.95;;;7.50;82.30;;;;;;5006183;28;20049;-74
2020/12/19 09:40:40;;;;;;;6.88;4.72;;;7.50;82.30;;;;;;5021587;28;20367;-74
2020/12/19 09:43:07;;;;;;;7.22;4.55;;;7.50;82.30;;;;;;4979630;28;20027;-74
2020/12/19 09:45:34;;;;;;;7.38;4.78;;;7.60;82.40;;;;;;4995067;28;20058;-74
2020/12/19 09:48:00;;;;;;;7.03;4.65;;;7.60;82.40;;;;;;5009896;28;20085;-74
2020/12/19 09:50:27;;;;;;;7.03;4.78;;;7.60;82.40;;;;;;4993645;28;20095;-73
2020/12/19 09:52:53;;;;;;;7.05;5.22;;;7.60;82.40;;;;;;4993577;28;20538;-74
2020/12/19 09:55:19;;;;;;;6.65;4.63;;;7.60;82.40;;;;;;4974010;28;20163;-74
2020/12/19 09:57:45;;;;;;;6.80;4.65;;;7.70;82.40;;;;;;4990679;28;20069;-73
2020/12/19 10:00:12;;;;;;;6.18;4.53;;;7.70;82.40;;;;;;4987911;28;20057;-73
2020/12/19 10:02:40;;;;;;;7.28;5.03;;;7.70;82.40;;;;;;5010306;28;20053;-74
2020/12/19 10:05:07;;;;;;;6.80;4.45;;;7.80;82.50;;;;;;4993063;28;20030;-73
2020/12/19 10:07:33;;;;;;;7.68;4.60;;;7.80;82.50;;;;;;4992959;28;20041;-73
2020/12/19 10:09:58;;;;;;;7.55;4.65;;;7.80;82.50;;;;;;5009840;28;20394;-73
2020/12/19 10:12:24;;;;;;;7.68;5.18;;;7.80;82.50;;;;;;4977186;28;20035;-73
2020/12/19 10:14:50;;;;;;;8.35;5.07;;;7.80;82.50;;;;;;4992986;28;20026;-73
2020/12/19 10:17:15;;;;;;;7.35;5.07;;;7.80;82.50;;;;;;4992950;28;20026;-74
2020/12/19 10:19:41;;;;;;;6.60;4.82;;;7.90;82.60;;;;;;4993298;28;20502;-72
2020/12/19 10:22:07;;;;;;;8.27;5.35;;;7.90;82.60;;;;;;4993209;28;20446;-72
2020/12/19 10:24:33;;;;;;;6.82;4.70;;;7.90;82.50;;;;;;4977261;28;20039;-71
2020/12/19 10:26:58;;;;;;;7.00;5.05;;;8.00;82.60;;;;;;4976667;28;20049;-72
2020/12/19 10:29:24;;;;;;;6.75;4.68;;;8.00;82.60;;;;;;4990423;28;20502;-72
2020/12/19 10:31:50;;;;;;;6.53;4.72;;;8.00;82.60;;;;;;4975444;28;20410;-72
2020/12/19 10:34:16;;;;;;;7.38;4.78;;;8.00;82.60;;;;;;4992694;28;20026;-72
2020/12/19 10:36:42;;;;;;;6.82;4.57;;;8.10;82.60;;;;;;4975256;28;20386;-73
2020/12/19 10:39:07;;;;;;;6.45;4.70;;;8.10;82.60;;;;;;4989375;28;20380;-72
2020/12/19 10:41:33;;;;;;;6.68;4.63;;;8.10;82.60;;;;;;4967847;28;20030;-71
2020/12/19 10:43:59;;;;;;;7.88;4.90;;;8.10;82.60;;;;;;5006835;28;20034;-73
2020/12/19 10:46:28;;;;;;;7.25;4.88;;;8.20;82.60;;;;;;4989603;28;20389;-73
2020/12/19 10:48:54;;;;;;;6.70;4.70;;;8.20;82.70;;;;;;5005985;28;20080;-76
2020/12/19 10:51:30;;;;;;;7.20;5.05;;;8.20;82.60;;;;;;4993122;28;20035;-73
2020/12/19 10:53:56;;;;;;;6.38;4.50;;;8.20;82.60;;;;;;4990379;28;20030;-73
2020/12/19 10:56:22;;;;;;;6.13;4.50;;;8.30;82.60;;;;;;4991593;28;20027;-73
2020/12/19 10:58:49;;;;;;;7.20;4.55;;;8.30;82.60;;;;;;4975410;28;20034;-73
2020/12/19 11:01:15;;;;;;;7.07;4.88;;;8.40;82.60;;;;;;4976129;28;20103;-73
2020/12/19 11:03:42;;;;;;;5.70;4.05;;;8.40;82.60;;;;;;5009113;28;20066;-73
2020/12/19 11:06:16;;;;;;;6.15;4.43;;;8.40;82.60;;;;;;4991492;28;20203;-72
2020/12/19 11:08:42;;;;;;;6.93;4.68;;;8.40;82.50;;;;;;5005753;28;20034;-72
2020/12/19 11:11:08;;;;;;;7.50;4.75;;;8.50;82.50;;;;;;4991896;28;20076;-73
2020/12/19 11:13:34;;;;;;;6.63;4.60;;;8.50;82.50;;;;;;5008197;28;20034;-72
2020/12/19 11:16:00;;;;;;;6.97;4.40;;;8.50;82.50;;;;;;4992713;28;20037;-73
2020/12/19 11:18:25;;;;;;;6.10;4.03;;;8.60;82.50;;;;;;4975997;28;20474;-73
2020/12/19 11:20:51;;;;;;;6.60;4.70;;;8.60;82.50;;;;;;4992375;28;20030;-73
2020/12/19 11:23:17;;;;;;;6.35;4.40;;;8.70;82.50;;;;;;4993119;28;20075;-73
2020/12/19 11:25:43;;;;;;;5.78;4.07;;;8.70;82.50;;;;;;4975574;28;20034;-73
2020/12/19 11:28:09;;;;;;;6.60;4.38;;;8.70;82.50;;;;;;4990981;28;20035;-72
2020/12/19 11:30:35;;;;;;;6.95;4.85;;;8.80;82.60;;;;;;4975208;28;20502;-73
2020/12/19 11:33:00;;;;;;;6.45;4.80;;;8.80;82.50;;;;;;4988644;28;20042;-73
2020/12/19 11:35:26;;;;;;;6.50;4.53;;;8.80;82.50;;;;;;4989317;28;20038;-72
2020/12/19 11:37:52;;;;;;;6.00;4.47;;;8.90;82.50;;;;;;4975121;28;20022;-72
2020/12/19 11:40:18;;;;;;;6.35;4.22;;;8.90;82.40;;;;;;4975312;28;20045;-72
2020/12/19 11:42:44;;;;;;;6.07;4.45;;;8.90;82.40;;;;;;4975228;28;20483;-73
2020/12/19 11:45:09;;;;;;;5.80;4.15;;;9.00;82.50;;;;;;4990550;28;20122;-73
2020/12/19 11:47:35;;;;;;;5.95;4.25;;;9.00;82.50;;;;;;4991298;28;20479;-73
2020/12/19 11:50:03;;;;;;;6.55;4.47;;;9.00;82.50;;;;;;4975302;28;20391;-73
2020/12/19 11:52:28;;;;;;;6.22;4.07;;;9.10;82.50;;;;;;4991549;28;20459;-72
2020/12/19 11:54:54;;;;;;;6.25;4.50;;;9.10;82.50;;;;;;5009317;28;20033;-72
2020/12/19 11:57:20;;;;;;;6.05;4.32;;;9.20;82.50;;;;;;4992481;28;20812;-74
2020/12/19 11:59:46;;;;;;;6.20;4.28;;;9.20;82.50;;;;;;4974295;28;20545;-73
2020/12/19 12:02:12;;;;;;;6.85;4.55;;;9.20;82.50;;;;;;4975074;28;20022;-74
2020/12/19 12:04:38;;;;;;;7.43;4.32;;;9.20;83.10;;;;;;4975267;28;20031;-74
2020/12/19 12:07:03;;;;;;;5.68;3.83;;;9.30;82.60;;;;;;4956531;28;20870;-74
2020/12/19 12:09:29;;;;;;;6.20;3.75;;;9.30;82.60;;;;;;4990157;28;20034;-74
2020/12/19 12:11:55;;;;;;;6.40;4.28;;;9.40;82.60;;;;;;4990799;28;20034;-74
2020/12/19 12:14:20;;;;;;;5.53;3.85;;;9.40;82.60;;;;;;4974092;28;20029;-73
2020/12/19 12:16:46;;;;;;;5.80;4.05;;;9.50;82.70;;;;;;4991462;28;20517;-73
2020/12/19 12:19:12;;;;;;;5.57;4.00;;;9.50;82.60;;;;;;4990797;28;20030;-73
2020/12/19 12:21:39;;;;;;;6.03;3.97;;;9.50;82.60;;;;;;4974978;28;20026;-75
2020/12/19 12:24:06;;;;;;;5.63;4.00;;;9.60;82.70;;;;;;5006228;28;20446;-74
2020/12/19 12:26:33;;;;;;;5.78;3.80;;;9.60;82.70;;;;;;4990972;28;20387;-73
2020/12/19 12:29:00;;;;;;;6.65;3.95;;;9.60;82.70;;;;;;4974541;28;20034;-74
2020/12/19 12:31:29;;;;;;;6.15;3.72;;;9.70;82.80;;;;;;4990834;28;20026;-73
2020/12/19 12:33:55;;;;;;;6.80;3.90;;;9.70;82.80;;;;;;5006688;28;20050;-73
2020/12/19 12:36:23;;;;;;;6.47;3.53;;;9.70;82.80;;;;;;4990891;28;20105;-71
2020/12/19 12:38:49;;;;;;;5.47;3.92;;;9.80;82.80;;;;;;4990261;28;20030;-72
2020/12/19 12:41:15;;;;;;;5.82;3.75;;;9.80;82.80;;;;;;4990132;28;20041;-73
2020/12/19 12:43:41;;;;;;;5.40;3.70;;;9.90;82.80;;;;;;4974460;28;20030;-73
2020/12/19 12:46:10;;;;;;;6.55;4.00;;;9.90;82.70;;;;;;4991515;28;20026;-74
2020/12/19 12:48:36;;;;;;;6.47;4.13;;;9.90;82.80;;;;;;4992196;28;20062;-73
2020/12/19 12:51:05;;;;;;;5.35;3.58;;;10.00;82.80;;;;;;4990763;28;20065;-74
2020/12/19 12:53:31;;;;;;;6.25;4.00;;;10.00;82.80;;;;;;4990489;28;20026;-73
2020/12/19 12:55:58;;;;;;;6.40;4.07;;;10.00;82.70;;;;;;4990525;28;20077;-75
2020/12/19 12:58:24;;;;;;;4.82;3.47;;;10.10;82.80;;;;;;4988402;28;20038;-73
2020/12/19 13:00:50;;;;;;;5.45;3.50;;;10.10;82.80;;;;;;4991285;28;20463;-73